sensor_id;sensor_type;location;lat;lon;timestamp;noise_LAeq;noise_LA_min;noise_LA_max;noise_LA01;noise_LA95
61270;Laerm;47150;53.032;8.960;2022-08-19T00:00:37;31.15;30.12;32.21;;
61270;Laerm;47150;53.032;8.960;2022-08-19T00:03:04;31.19;30.01;32.34;;
61270;Laerm;47150;53.032;8.960;2022-08-19T00:05:30;31.22;29.83;32.32;;
61270;Laerm;47150;53.032;8.960;2022-08-19T00:07:57;31.27;30.18;32.41;;
61270;Laerm;47150;53.032;8.960;2022-08-19T00:10:22;31.28;30.13;32.35;;
61270;Laerm;47150;53.032;8.960;2022-08-19T00:12:50;31.21;30.00;32.23;;
61270;Laerm;47150;53.032;8.960;2022-08-19T00:15:19;31.14;29.74;32.31;;
61270;Laerm;47150;53.032;8.960;2022-08-19T00:17:46;31.08;29.77;32.33;;
61270;Laerm;47150;53.032;8.960;2022-08-19T00:20:18;31.07;30.00;32.27;;
61270;Laerm;47150;53.032;8.960;2022-08-19T00:22:46;31.10;29.91;32.10;;
61270;Laerm;47150;53.032;8.960;2022-08-19T00:25:13;31.13;29.89;32.31;;
61270;Laerm;47150;53.032;8.960;2022-08-19T00:27:40;31.18;30.11;32.34;;
61270;Laerm;47150;53.032;8.960;2022-08-19T00:30:07;31.23;30.18;32.29;;
61270;Laerm;47150;53.032;8.960;2022-08-19T00:32:33;31.27;30.02;32.27;;
61270;Laerm;47150;53.032;8.960;2022-08-19T00:35:00;31.32;30.04;32.43;;
61270;Laerm;47150;53.032;8.960;2022-08-19T00:37:25;31.35;30.08;32.55;;
61270;Laerm;47150;53.032;8.960;2022-08-19T00:39:53;31.36;29.97;32.50;;
61270;Laerm;47150;53.032;8.960;2022-08-19T00:42:20;31.40;30.18;32.82;;
61270;Laerm;47150;53.032;8.960;2022-08-19T00:44:46;31.38;30.15;32.45;;
61270;Laerm;47150;53.032;8.960;2022-08-19T00:47:13;31.37;30.16;32.54;;
61270;Laerm;47150;53.032;8.960;2022-08-19T00:49:48;31.36;29.99;32.41;;
61270;Laerm;47150;53.032;8.960;2022-08-19T00:52:48;31.36;30.10;32.48;;
61270;Laerm;47150;53.032;8.960;2022-08-19T00:55:21;31.35;30.10;32.39;;
61270;Laerm;47150;53.032;8.960;2022-08-19T00:57:55;31.31;29.75;32.38;;
61270;Laerm;47150;53.032;8.960;2022-08-19T01:00:25;31.29;30.08;32.39;;
61270;Laerm;47150;53.032;8.960;2022-08-19T01:02:52;31.31;30.29;32.44;;
61270;Laerm;47150;53.032;8.960;2022-08-19T01:05:23;31.27;30.17;32.63;;
61270;Laerm;47150;53.032;8.960;2022-08-19T01:07:50;31.25;30.20;32.46;;
61270;Laerm;47150;53.032;8.960;2022-08-19T01:10:21;31.25;30.16;32.30;;
61270;Laerm;47150;53.032;8.960;2022-08-19T01:12:49;31.22;29.89;32.27;;
61270;Laerm;47150;53.032;8.960;2022-08-19T01:15:23;31.22;29.99;32.58;;
61270;Laerm;47150;53.032;8.960;2022-08-19T01:17:51;31.23;30.09;32.30;;
61270;Laerm;47150;53.032;8.960;2022-08-19T01:20:21;31.25;29.93;32.40;;
61270;Laerm;47150;53.032;8.960;2022-08-19T01:22:51;31.26;29.98;32.32;;
61270;Laerm;47150;53.032;8.960;2022-08-19T01:25:22;31.26;29.83;32.65;;
61270;Laerm;47150;53.032;8.960;2022-08-19T01:27:51;31.28;30.13;32.34;;
61270;Laerm;47150;53.032;8.960;2022-08-19T01:30:23;31.30;30.09;32.65;;
61270;Laerm;47150;53.032;8.960;2022-08-19T01:32:50;31.30;29.79;32.47;;
61270;Laerm;47150;53.032;8.960;2022-08-19T01:35:20;31.32;30.16;32.61;;
61270;Laerm;47150;53.032;8.960;2022-08-19T01:37:54;31.36;29.94;32.48;;
61270;Laerm;47150;53.032;8.960;2022-08-19T01:40:24;31.39;30.21;32.60;;
61270;Laerm;47150;53.032;8.960;2022-08-19T01:42:53;31.41;30.29;32.50;;
61270;Laerm;47150;53.032;8.960;2022-08-19T01:45:21;31.49;30.34;32.58;;
61270;Laerm;47150;53.032;8.960;2022-08-19T01:47:47;31.49;30.11;32.66;;
61270;Laerm;47150;53.032;8.960;2022-08-19T01:50:14;31.50;30.35;32.62;;
61270;Laerm;47150;53.032;8.960;2022-08-19T01:52:42;31.54;30.34;32.71;;
61270;Laerm;47150;53.032;8.960;2022-08-19T01:55:14;31.55;30.23;32.80;;
61270;Laerm;47150;53.032;8.960;2022-08-19T01:57:47;31.61;30.31;32.75;;
61270;Laerm;47150;53.032;8.960;2022-08-19T02:00:17;31.62;30.51;32.77;;
61270;Laerm;47150;53.032;8.960;2022-08-19T02:02:43;31.64;30.51;32.79;;
61270;Laerm;47150;53.032;8.960;2022-08-19T02:05:10;31.65;30.49;32.74;;
61270;Laerm;47150;53.032;8.960;2022-08-19T02:07:36;31.66;30.27;32.88;;
61270;Laerm;47150;53.032;8.960;2022-08-19T02:10:10;31.68;30.57;32.77;;
61270;Laerm;47150;53.032;8.960;2022-08-19T02:12:36;31.68;30.39;32.75;;
61270;Laerm;47150;53.032;8.960;2022-08-19T02:15:02;31.67;30.47;32.70;;
61270;Laerm;47150;53.032;8.960;2022-08-19T02:17:29;31.70;30.62;32.76;;
61270;Laerm;47150;53.032;8.960;2022-08-19T02:19:56;31.72;30.55;32.71;;
61270;Laerm;47150;53.032;8.960;2022-08-19T02:22:23;31.73;30.55;32.94;;
61270;Laerm;47150;53.032;8.960;2022-08-19T02:24:52;31.89;30.77;33.08;;
61270;Laerm;47150;53.032;8.960;2022-08-19T02:27:17;32.05;30.60;33.12;;
61270;Laerm;47150;53.032;8.960;2022-08-19T02:29:46;32.16;31.04;33.18;;
61270;Laerm;47150;53.032;8.960;2022-08-19T02:32:12;32.22;30.99;33.38;;
61270;Laerm;47150;53.032;8.960;2022-08-19T02:34:39;32.23;30.96;33.35;;
61270;Laerm;47150;53.032;8.960;2022-08-19T02:37:05;32.29;31.13;33.37;;
61270;Laerm;47150;53.032;8.960;2022-08-19T02:39:30;32.29;31.20;33.45;;
61270;Laerm;47150;53.032;8.960;2022-08-19T02:41:56;32.30;31.04;33.45;;
61270;Laerm;47150;53.032;8.960;2022-08-19T02:44:24;32.45;31.22;33.55;;
61270;Laerm;47150;53.032;8.960;2022-08-19T02:46:50;32.46;31.20;33.49;;
61270;Laerm;47150;53.032;8.960;2022-08-19T02:49:15;32.58;31.19;33.77;;
61270;Laerm;47150;53.032;8.960;2022-08-19T02:51:44;32.65;31.43;33.83;;
61270;Laerm;47150;53.032;8.960;2022-08-19T02:54:12;32.64;31.57;33.69;;
61270;Laerm;47150;53.032;8.960;2022-08-19T02:56:41;32.67;31.52;33.97;;
61270;Laerm;47150;53.032;8.960;2022-08-19T02:59:07;32.72;31.42;33.70;;
61270;Laerm;47150;53.032;8.960;2022-08-19T03:01:36;32.74;31.45;33.93;;
61270;Laerm;47150;53.032;8.960;2022-08-19T03:04:05;32.77;31.74;33.79;;
61270;Laerm;47150;53.032;8.960;2022-08-19T03:06:31;32.78;31.23;34.43;;
61270;Laerm;47150;53.032;8.960;2022-08-19T03:08:57;32.77;31.66;34.52;;
61270;Laerm;47150;53.032;8.960;2022-08-19T03:11:26;32.87;31.69;34.21;;
61270;Laerm;47150;53.032;8.960;2022-08-19T03:13:53;32.98;31.79;34.11;;
61270;Laerm;47150;53.032;8.960;2022-08-19T03:16:22;33.02;31.82;34.01;;
61270;Laerm;47150;53.032;8.960;2022-08-19T03:18:49;33.06;31.97;34.21;;
61270;Laerm;47150;53.032;8.960;2022-08-19T03:21:24;33.05;31.83;34.11;;
61270;Laerm;47150;53.032;8.960;2022-08-19T03:23:55;33.01;31.83;34.15;;
61270;Laerm;47150;53.032;8.960;2022-08-19T03:26:21;32.97;31.69;34.12;;
61270;Laerm;47150;53.032;8.960;2022-08-19T03:28:47;32.99;31.64;34.02;;
61270;Laerm;47150;53.032;8.960;2022-08-19T03:31:18;33.00;31.79;34.28;;
61270;Laerm;47150;53.032;8.960;2022-08-19T03:33:45;33.03;31.81;34.27;;
61270;Laerm;47150;53.032;8.960;2022-08-19T03:36:18;33.04;31.96;34.16;;
61270;Laerm;47150;53.032;8.960;2022-08-19T03:38:51;33.07;31.88;34.26;;
61270;Laerm;47150;53.032;8.960;2022-08-19T03:41:33;33.04;31.78;34.35;;
61270;Laerm;47150;53.032;8.960;2022-08-19T03:44:02;33.01;31.73;34.26;;
61270;Laerm;47150;53.032;8.960;2022-08-19T03:46:32;33.08;31.98;34.22;;
61270;Laerm;47150;53.032;8.960;2022-08-19T03:49:03;33.10;31.86;34.24;;
61270;Laerm;47150;53.032;8.960;2022-08-19T03:51:35;33.08;31.80;34.31;;
61270;Laerm;47150;53.032;8.960;2022-08-19T03:54:06;33.05;31.79;34.09;;
61270;Laerm;47150;53.032;8.960;2022-08-19T03:56:36;33.02;31.74;34.07;;
61270;Laerm;47150;53.032;8.960;2022-08-19T03:59:05;32.98;31.59;34.11;;
61270;Laerm;47150;53.032;8.960;2022-08-19T04:01:31;33.01;31.92;34.08;;
61270;Laerm;47150;53.032;8.960;2022-08-19T04:03:58;33.04;31.95;34.01;;
61270;Laerm;47150;53.032;8.960;2022-08-19T04:06:29;33.05;31.93;34.06;;
61270;Laerm;47150;53.032;8.960;2022-08-19T04:08:57;33.06;31.91;34.25;;
61270;Laerm;47150;53.032;8.960;2022-08-19T04:11:31;33.04;31.90;34.15;;
61270;Laerm;47150;53.032;8.960;2022-08-19T04:14:00;33.03;31.91;34.27;;
61270;Laerm;47150;53.032;8.960;2022-08-19T04:16:27;33.00;31.74;33.99;;
61270;Laerm;47150;53.032;8.960;2022-08-19T04:19:00;32.71;31.46;34.10;;
61270;Laerm;47150;53.032;8.960;2022-08-19T04:21:27;32.41;31.22;33.72;;
61270;Laerm;47150;53.032;8.960;2022-08-19T04:23:55;32.14;30.90;33.25;;
61270;Laerm;47150;53.032;8.960;2022-08-19T04:26:29;31.92;30.78;33.13;;
61270;Laerm;47150;53.032;8.960;2022-08-19T04:29:01;31.76;30.47;32.98;;
61270;Laerm;47150;53.032;8.960;2022-08-19T04:31:31;31.63;30.30;32.82;;
61270;Laerm;47150;53.032;8.960;2022-08-19T04:33:59;31.51;30.29;35.79;;
61270;Laerm;47150;53.032;8.960;2022-08-19T04:36:33;31.43;30.19;32.61;;
61270;Laerm;47150;53.032;8.960;2022-08-19T04:39:05;31.35;30.13;32.51;;
61270;Laerm;47150;53.032;8.960;2022-08-19T04:41:33;31.28;29.93;32.49;;
61270;Laerm;47150;53.032;8.960;2022-08-19T04:44:18;31.19;29.84;32.16;;
61270;Laerm;47150;53.032;8.960;2022-08-19T04:46:49;31.12;29.94;32.20;;
61270;Laerm;47150;53.032;8.960;2022-08-19T04:49:17;31.08;29.78;32.19;;
61270;Laerm;47150;53.032;8.960;2022-08-19T04:51:46;31.02;29.87;32.11;;
61270;Laerm;47150;53.032;8.960;2022-08-19T04:54:17;31.00;29.90;32.20;;
61270;Laerm;47150;53.032;8.960;2022-08-19T04:56:43;30.97;29.82;32.02;;
61270;Laerm;47150;53.032;8.960;2022-08-19T04:59:09;30.98;29.71;32.17;;
61270;Laerm;47150;53.032;8.960;2022-08-19T05:01:36;31.00;29.90;32.03;;
61270;Laerm;47150;53.032;8.960;2022-08-19T05:04:04;31.02;29.90;32.17;;
61270;Laerm;47150;53.032;8.960;2022-08-19T05:06:32;31.06;29.91;32.17;;
61270;Laerm;47150;53.032;8.960;2022-08-19T05:09:01;31.13;29.83;32.17;;
61270;Laerm;47150;53.032;8.960;2022-08-19T05:11:31;31.17;30.05;32.15;;
61270;Laerm;47150;53.032;8.960;2022-08-19T05:13:57;31.21;30.01;32.27;;
61270;Laerm;47150;53.032;8.960;2022-08-19T05:16:25;31.27;30.19;32.36;;
61270;Laerm;47150;53.032;8.960;2022-08-19T05:18:52;31.29;30.14;32.37;;
61270;Laerm;47150;53.032;8.960;2022-08-19T05:21:39;31.29;30.10;32.45;;
61270;Laerm;47150;53.032;8.960;2022-08-19T05:24:24;31.27;30.15;32.44;;
61270;Laerm;47150;53.032;8.960;2022-08-19T05:26:52;31.32;29.94;32.53;;
61270;Laerm;47150;53.032;8.960;2022-08-19T05:29:23;31.37;30.12;32.48;;
61270;Laerm;47150;53.032;8.960;2022-08-19T05:31:50;31.36;30.19;32.49;;
61270;Laerm;47150;53.032;8.960;2022-08-19T05:34:19;31.40;30.18;32.50;;
61270;Laerm;47150;53.032;8.960;2022-08-19T05:36:49;31.40;30.27;32.46;;
61270;Laerm;47150;53.032;8.960;2022-08-19T05:39:20;31.42;30.26;32.63;;
61270;Laerm;47150;53.032;8.960;2022-08-19T05:41:50;31.48;30.36;32.68;;
61270;Laerm;47150;53.032;8.960;2022-08-19T05:44:18;31.52;30.31;32.70;;
61270;Laerm;47150;53.032;8.960;2022-08-19T05:46:44;31.50;30.27;32.50;;
61270;Laerm;47150;53.032;8.960;2022-08-19T05:49:13;31.49;30.34;32.67;;
61270;Laerm;47150;53.032;8.960;2022-08-19T05:51:40;31.47;30.25;32.46;;
61270;Laerm;47150;53.032;8.960;2022-08-19T05:54:06;31.46;30.37;32.53;;
61270;Laerm;47150;53.032;8.960;2022-08-19T05:56:34;31.45;30.27;32.55;;
61270;Laerm;47150;53.032;8.960;2022-08-19T05:59:02;31.46;29.96;32.51;;
61270;Laerm;47150;53.032;8.960;2022-08-19T06:01:27;31.49;30.29;32.69;;
61270;Laerm;47150;53.032;8.960;2022-08-19T06:03:53;31.54;30.32;32.79;;
61270;Laerm;47150;53.032;8.960;2022-08-19T06:06:19;31.63;30.28;32.74;;
61270;Laerm;47150;53.032;8.960;2022-08-19T06:08:45;31.73;30.50;32.93;;
61270;Laerm;47150;53.032;8.960;2022-08-19T06:14:12;31.91;30.81;33.08;;
61270;Laerm;47150;53.032;8.960;2022-08-19T06:16:41;31.96;30.71;33.01;;
61270;Laerm;47150;53.032;8.960;2022-08-19T06:19:14;32.02;30.84;33.09;;
61270;Laerm;47150;53.032;8.960;2022-08-19T06:21:44;32.09;30.90;33.24;;
61270;Laerm;47150;53.032;8.960;2022-08-19T06:24:14;32.18;30.74;33.20;;
61270;Laerm;47150;53.032;8.960;2022-08-19T06:26:48;32.21;31.06;33.48;;
61270;Laerm;47150;53.032;8.960;2022-08-19T06:29:16;32.27;31.15;33.40;;
61270;Laerm;47150;53.032;8.960;2022-08-19T06:31:47;32.47;31.25;33.58;;
61270;Laerm;47150;53.032;8.960;2022-08-19T06:34:15;32.72;31.52;33.91;;
61270;Laerm;47150;53.032;8.960;2022-08-19T06:36:46;33.02;31.81;34.24;;
61270;Laerm;47150;53.032;8.960;2022-08-19T06:39:16;33.24;32.14;34.45;;
61270;Laerm;47150;53.032;8.960;2022-08-19T06:41:46;33.46;32.29;34.68;;
61270;Laerm;47150;53.032;8.960;2022-08-19T06:44:13;33.63;32.38;34.75;;
61270;Laerm;47150;53.032;8.960;2022-08-19T06:46:40;33.84;32.66;35.06;;
61270;Laerm;47150;53.032;8.960;2022-08-19T06:49:07;33.98;32.64;35.33;;
61270;Laerm;47150;53.032;8.960;2022-08-19T06:51:37;34.11;32.79;35.17;;
61270;Laerm;47150;53.032;8.960;2022-08-19T06:54:02;34.17;33.00;35.28;;
61270;Laerm;47150;53.032;8.960;2022-08-19T06:56:30;34.23;32.72;35.54;;
61270;Laerm;47150;53.032;8.960;2022-08-19T06:59:07;34.31;32.98;35.54;;
61270;Laerm;47150;53.032;8.960;2022-08-19T07:01:55;34.36;33.06;35.78;;
61270;Laerm;47150;53.032;8.960;2022-08-19T07:04:26;34.29;33.10;35.63;;
61270;Laerm;47150;53.032;8.960;2022-08-19T07:07:00;34.22;32.97;35.40;;
61270;Laerm;47150;53.032;8.960;2022-08-19T07:09:27;34.19;33.07;35.37;;
61270;Laerm;47150;53.032;8.960;2022-08-19T07:11:54;34.14;33.04;35.27;;
61270;Laerm;47150;53.032;8.960;2022-08-19T07:14:27;34.07;32.85;35.21;;
61270;Laerm;47150;53.032;8.960;2022-08-19T07:16:55;34.10;32.96;35.23;;
61270;Laerm;47150;53.032;8.960;2022-08-19T07:19:25;34.11;33.05;35.52;;
61270;Laerm;47150;53.032;8.960;2022-08-19T07:21:53;34.12;32.67;35.22;;
61270;Laerm;47150;53.032;8.960;2022-08-19T07:24:22;34.16;32.99;35.25;;
61270;Laerm;47150;53.032;8.960;2022-08-19T07:26:51;34.16;33.07;35.22;;
61270;Laerm;47150;53.032;8.960;2022-08-19T07:29:17;34.17;33.01;35.39;;
61270;Laerm;47150;53.032;8.960;2022-08-19T07:31:43;34.18;32.84;35.43;;
61270;Laerm;47150;53.032;8.960;2022-08-19T07:34:11;34.21;32.81;35.37;;
61270;Laerm;47150;53.032;8.960;2022-08-19T07:36:40;34.22;32.91;35.38;;
61270;Laerm;47150;53.032;8.960;2022-08-19T07:39:21;34.26;32.88;35.47;;
61270;Laerm;47150;53.032;8.960;2022-08-19T07:41:49;34.30;33.01;35.42;;
61270;Laerm;47150;53.032;8.960;2022-08-19T07:44:18;34.36;32.97;35.46;;
61270;Laerm;47150;53.032;8.960;2022-08-19T07:46:47;34.36;33.06;35.48;;
61270;Laerm;47150;53.032;8.960;2022-08-19T07:49:14;34.48;33.29;35.74;;
61270;Laerm;47150;53.032;8.960;2022-08-19T07:51:59;34.62;33.48;35.94;;
61270;Laerm;47150;53.032;8.960;2022-08-19T07:54:31;34.77;33.66;35.94;;
61270;Laerm;47150;53.032;8.960;2022-08-19T07:56:57;34.84;33.68;35.89;;
61270;Laerm;47150;53.032;8.960;2022-08-19T07:59:24;34.91;33.62;36.01;;
61270;Laerm;47150;53.032;8.960;2022-08-19T08:01:50;35.08;33.78;36.26;;
61270;Laerm;47150;53.032;8.960;2022-08-19T08:04:17;35.08;33.92;36.27;;
61270;Laerm;47150;53.032;8.960;2022-08-19T08:07:02;35.04;33.84;36.15;;
61270;Laerm;47150;53.032;8.960;2022-08-19T08:09:46;34.99;33.39;36.25;;
61270;Laerm;47150;53.032;8.960;2022-08-19T08:12:18;34.93;33.64;36.24;;
61270;Laerm;47150;53.032;8.960;2022-08-19T08:14:52;34.83;33.69;35.93;;
61270;Laerm;47150;53.032;8.960;2022-08-19T08:17:23;34.83;33.43;36.00;;
61270;Laerm;47150;53.032;8.960;2022-08-19T08:19:50;35.06;33.82;36.42;;
61270;Laerm;47150;53.032;8.960;2022-08-19T08:22:19;35.27;34.09;36.57;;
61270;Laerm;47150;53.032;8.960;2022-08-19T08:25:15;35.43;34.06;36.59;;
61270;Laerm;47150;53.032;8.960;2022-08-19T08:27:44;35.77;34.26;37.02;;
61270;Laerm;47150;53.032;8.960;2022-08-19T08:30:17;36.03;34.61;37.46;;
61270;Laerm;47150;53.032;8.960;2022-08-19T08:32:43;36.36;34.92;37.76;;
61270;Laerm;47150;53.032;8.960;2022-08-19T08:35:15;36.25;35.01;37.43;;
61270;Laerm;47150;53.032;8.960;2022-08-19T08:37:42;36.07;35.00;37.13;;
61270;Laerm;47150;53.032;8.960;2022-08-19T08:46:15;36.64;35.33;37.96;;
61270;Laerm;47150;53.032;8.960;2022-08-19T08:48:58;36.78;35.22;37.85;;
61270;Laerm;47150;53.032;8.960;2022-08-19T08:51:52;36.75;35.23;37.81;;
61270;Laerm;47150;53.032;8.960;2022-08-19T08:54:28;36.55;35.36;37.68;;
61270;Laerm;47150;53.032;8.960;2022-08-19T08:56:56;36.58;35.33;37.77;;
61270;Laerm;47150;53.032;8.960;2022-08-19T08:59:30;36.41;35.25;37.60;;
61270;Laerm;47150;53.032;8.960;2022-08-19T09:02:00;36.31;35.04;37.54;;
61270;Laerm;47150;53.032;8.960;2022-08-19T09:04:27;36.13;34.67;37.33;;
61270;Laerm;47150;53.032;8.960;2022-08-19T09:09:51;36.14;35.03;37.22;;
61270;Laerm;47150;53.032;8.960;2022-08-19T09:12:40;36.27;35.16;37.47;;
61270;Laerm;47150;53.032;8.960;2022-08-19T09:15:10;36.28;35.08;37.55;;
61270;Laerm;47150;53.032;8.960;2022-08-19T09:17:37;36.32;35.06;37.41;;
61270;Laerm;47150;53.032;8.960;2022-08-19T09:22:40;36.16;34.95;37.28;;
61270;Laerm;47150;53.032;8.960;2022-08-19T09:25:16;36.29;35.14;37.52;;
61270;Laerm;47150;53.032;8.960;2022-08-19T09:27:43;36.33;34.97;37.39;;
61270;Laerm;47150;53.032;8.960;2022-08-19T09:30:14;36.27;34.71;37.31;;
61270;Laerm;47150;53.032;8.960;2022-08-19T09:32:40;36.54;35.26;37.97;;
61270;Laerm;47150;53.032;8.960;2022-08-19T09:35:08;36.55;35.16;37.72;;
61270;Laerm;47150;53.032;8.960;2022-08-19T09:37:34;36.52;35.31;37.90;;
61270;Laerm;47150;53.032;8.960;2022-08-19T09:39:59;36.49;34.82;37.59;;
61270;Laerm;47150;53.032;8.960;2022-08-19T09:42:25;36.51;35.30;37.84;;
61270;Laerm;47150;53.032;8.960;2022-08-19T09:44:53;36.58;35.30;37.90;;
61270;Laerm;47150;53.032;8.960;2022-08-19T09:47:19;36.68;35.46;37.79;;
61270;Laerm;47150;53.032;8.960;2022-08-19T09:49:44;36.67;35.48;37.85;;
61270;Laerm;47150;53.032;8.960;2022-08-19T09:52:11;36.76;35.48;37.89;;
61270;Laerm;47150;53.032;8.960;2022-08-19T09:54:38;36.84;35.47;38.08;;
61270;Laerm;47150;53.032;8.960;2022-08-19T09:57:04;36.73;35.47;37.95;;
61270;Laerm;47150;53.032;8.960;2022-08-19T09:59:30;36.77;35.32;38.01;;
61270;Laerm;47150;53.032;8.960;2022-08-19T10:01:56;36.64;35.21;37.82;;
61270;Laerm;47150;53.032;8.960;2022-08-19T10:04:22;36.72;35.33;37.88;;
61270;Laerm;47150;53.032;8.960;2022-08-19T10:06:50;36.87;35.65;37.97;;
61270;Laerm;47150;53.032;8.960;2022-08-19T10:09:17;36.91;35.28;37.98;;
61270;Laerm;47150;53.032;8.960;2022-08-19T10:11:45;36.90;35.60;38.07;;
61270;Laerm;47150;53.032;8.960;2022-08-19T10:14:13;36.91;35.72;38.23;;
61270;Laerm;47150;53.032;8.960;2022-08-19T10:16:38;36.95;35.65;38.08;;
61270;Laerm;47150;53.032;8.960;2022-08-19T10:19:06;36.83;35.58;37.99;;
61270;Laerm;47150;53.032;8.960;2022-08-19T10:21:33;36.75;35.50;38.07;;
61270;Laerm;47150;53.032;8.960;2022-08-19T10:24:04;36.88;35.77;38.09;;
61270;Laerm;47150;53.032;8.960;2022-08-19T10:26:38;37.11;35.70;38.23;;
61270;Laerm;47150;53.032;8.960;2022-08-19T10:29:06;37.11;35.79;38.21;;
61270;Laerm;47150;53.032;8.960;2022-08-19T10:31:33;37.07;35.77;38.17;;
61270;Laerm;47150;53.032;8.960;2022-08-19T10:34:00;37.21;35.93;38.42;;
61270;Laerm;47150;53.032;8.960;2022-08-19T10:36:34;37.55;36.21;38.81;;
61270;Laerm;47150;53.032;8.960;2022-08-19T10:39:07;37.48;35.96;38.66;;
61270;Laerm;47150;53.032;8.960;2022-08-19T10:41:38;37.34;36.11;38.66;;
61270;Laerm;47150;53.032;8.960;2022-08-19T10:44:08;37.22;35.74;38.96;;
61270;Laerm;47150;53.032;8.960;2022-08-19T10:46:40;37.16;35.85;38.52;;
61270;Laerm;47150;53.032;8.960;2022-08-19T10:49:09;37.10;35.81;38.72;;
61270;Laerm;47150;53.032;8.960;2022-08-19T10:51:39;37.11;35.74;38.38;;
61270;Laerm;47150;53.032;8.960;2022-08-19T10:54:23;37.09;35.53;38.38;;
61270;Laerm;47150;53.032;8.960;2022-08-19T10:57:09;37.06;35.54;38.53;;
61270;Laerm;47150;53.032;8.960;2022-08-19T10:59:34;37.05;35.72;38.35;;
61270;Laerm;47150;53.032;8.960;2022-08-19T11:02:04;37.03;35.68;38.45;;
61270;Laerm;47150;53.032;8.960;2022-08-19T11:04:31;37.06;35.68;38.31;;
61270;Laerm;47150;53.032;8.960;2022-08-19T11:06:57;37.07;35.68;38.29;;
61270;Laerm;47150;53.032;8.960;2022-08-19T11:09:25;37.10;35.79;38.48;;
61270;Laerm;47150;53.032;8.960;2022-08-19T11:11:53;37.16;35.47;46.56;;
61270;Laerm;47150;53.032;8.960;2022-08-19T11:14:20;37.12;35.74;42.15;;
61270;Laerm;47150;53.032;8.960;2022-08-19T11:16:51;37.05;35.69;38.28;;
61270;Laerm;47150;53.032;8.960;2022-08-19T11:19:19;36.95;35.70;38.28;;
61270;Laerm;47150;53.032;8.960;2022-08-19T11:21:48;36.99;35.69;38.41;;
61270;Laerm;47150;53.032;8.960;2022-08-19T11:24:21;36.97;35.61;38.15;;
61270;Laerm;47150;53.032;8.960;2022-08-19T11:26:50;36.91;35.60;38.20;;
61270;Laerm;47150;53.032;8.960;2022-08-19T11:29:22;36.89;35.64;37.99;;
61270;Laerm;47150;53.032;8.960;2022-08-19T11:31:49;36.94;35.52;38.40;;
61270;Laerm;47150;53.032;8.960;2022-08-19T11:34:21;36.97;35.50;38.11;;
61270;Laerm;47150;53.032;8.960;2022-08-19T11:36:49;36.93;35.61;38.33;;
61270;Laerm;47150;53.032;8.960;2022-08-19T11:39:18;36.94;35.58;38.20;;
61270;Laerm;47150;53.032;8.960;2022-08-19T11:41:45;37.00;35.78;38.81;;
61270;Laerm;47150;53.032;8.960;2022-08-19T11:44:11;37.07;35.86;38.51;;
61270;Laerm;47150;53.032;8.960;2022-08-19T11:46:41;37.02;35.64;38.28;;
61270;Laerm;47150;53.032;8.960;2022-08-19T11:49:07;36.99;35.43;38.22;;
61270;Laerm;47150;53.032;8.960;2022-08-19T11:51:35;36.90;35.55;38.10;;
61270;Laerm;47150;53.032;8.960;2022-08-19T11:54:01;36.77;35.50;38.11;;
61270;Laerm;47150;53.032;8.960;2022-08-19T11:56:27;36.75;35.43;38.34;;
61270;Laerm;47150;53.032;8.960;2022-08-19T11:58:54;36.75;35.39;37.90;;
61270;Laerm;47150;53.032;8.960;2022-08-19T12:01:25;36.72;35.36;37.79;;
61270;Laerm;47150;53.032;8.960;2022-08-19T12:03:53;36.71;35.27;38.06;;
61270;Laerm;47150;53.032;8.960;2022-08-19T12:06:25;36.58;35.30;37.79;;
61270;Laerm;47150;53.032;8.960;2022-08-19T12:08:57;36.51;35.12;37.85;;
61270;Laerm;47150;53.032;8.960;2022-08-19T12:11:23;36.44;35.13;37.63;;
61270;Laerm;47150;53.032;8.960;2022-08-19T12:13:50;36.39;35.16;37.66;;
61270;Laerm;47150;53.032;8.960;2022-08-19T12:16:23;36.37;35.11;41.11;;
61270;Laerm;47150;53.032;8.960;2022-08-19T12:18:50;36.31;34.98;37.70;;
61270;Laerm;47150;53.032;8.960;2022-08-19T12:21:23;36.29;34.83;37.59;;
61270;Laerm;47150;53.032;8.960;2022-08-19T12:23:51;36.28;34.98;37.54;;
61270;Laerm;47150;53.032;8.960;2022-08-19T12:26:18;36.29;34.91;37.45;;
61270;Laerm;47150;53.032;8.960;2022-08-19T12:28:44;36.34;34.87;37.69;;
61270;Laerm;47150;53.032;8.960;2022-08-19T12:31:10;36.43;34.99;37.66;;
61270;Laerm;47150;53.032;8.960;2022-08-19T12:33:40;36.51;35.30;37.64;;
61270;Laerm;47150;53.032;8.960;2022-08-19T12:36:10;36.63;35.27;37.92;;
61270;Laerm;47150;53.032;8.960;2022-08-19T12:38:38;36.71;35.50;39.36;;
61270;Laerm;47150;53.032;8.960;2022-08-19T12:41:06;36.72;35.43;38.02;;
61270;Laerm;47150;53.032;8.960;2022-08-19T12:43:33;36.73;35.35;38.27;;
61270;Laerm;47150;53.032;8.960;2022-08-19T12:46:00;36.71;35.22;38.06;;
61270;Laerm;47150;53.032;8.960;2022-08-19T12:48:26;36.77;35.43;51.72;;
61270;Laerm;47150;53.032;8.960;2022-08-19T12:50:51;36.70;35.37;38.57;;
61270;Laerm;47150;53.032;8.960;2022-08-19T12:53:17;36.64;35.13;38.11;;
61270;Laerm;47150;53.032;8.960;2022-08-19T12:55:43;36.63;35.32;40.54;;
61270;Laerm;47150;53.032;8.960;2022-08-19T12:58:09;36.56;35.21;37.86;;
61270;Laerm;47150;53.032;8.960;2022-08-19T13:00:35;36.54;35.14;37.79;;
61270;Laerm;47150;53.032;8.960;2022-08-19T13:03:01;36.59;35.08;37.86;;
61270;Laerm;47150;53.032;8.960;2022-08-19T13:05:31;36.53;34.89;38.12;;
61270;Laerm;47150;53.032;8.960;2022-08-19T13:07:59;36.50;35.18;37.74;;
61270;Laerm;47150;53.032;8.960;2022-08-19T13:10:30;36.54;35.29;37.85;;
61270;Laerm;47150;53.032;8.960;2022-08-19T13:12:57;36.56;35.06;38.09;;
61270;Laerm;47150;53.032;8.960;2022-08-19T13:15:24;36.56;35.17;37.77;;
61270;Laerm;47150;53.032;8.960;2022-08-19T13:17:52;36.53;35.16;37.71;;
61270;Laerm;47150;53.032;8.960;2022-08-19T13:20:20;36.50;34.99;37.74;;
61270;Laerm;47150;53.032;8.960;2022-08-19T13:22:47;36.46;35.07;37.77;;
61270;Laerm;47150;53.032;8.960;2022-08-19T13:25:15;36.42;34.87;37.68;;
61270;Laerm;47150;53.032;8.960;2022-08-19T13:27:43;36.47;35.26;37.82;;
61270;Laerm;47150;53.032;8.960;2022-08-19T13:30:11;36.52;35.14;37.82;;
61270;Laerm;47150;53.032;8.960;2022-08-19T13:32:56;36.54;34.95;38.24;;
61270;Laerm;47150;53.032;8.960;2022-08-19T13:35:50;36.54;35.10;37.71;;
61270;Laerm;47150;53.032;8.960;2022-08-19T13:38:21;36.53;35.25;37.82;;
61270;Laerm;47150;53.032;8.960;2022-08-19T13:40:50;36.47;34.71;39.69;;
61270;Laerm;47150;53.032;8.960;2022-08-19T13:43:18;36.46;35.20;37.75;;
61270;Laerm;47150;53.032;8.960;2022-08-19T13:45:45;36.53;35.01;37.71;;
61270;Laerm;47150;53.032;8.960;2022-08-19T13:48:10;36.58;35.21;37.83;;
61270;Laerm;47150;53.032;8.960;2022-08-19T13:50:43;36.59;34.99;37.86;;
61270;Laerm;47150;53.032;8.960;2022-08-19T13:53:11;36.56;35.15;38.01;;
61270;Laerm;47150;53.032;8.960;2022-08-19T13:55:40;36.57;35.13;37.89;;
61270;Laerm;47150;53.032;8.960;2022-08-19T13:58:06;36.49;35.16;37.84;;
61270;Laerm;47150;53.032;8.960;2022-08-19T14:00:36;36.42;35.08;38.68;;
61270;Laerm;47150;53.032;8.960;2022-08-19T14:03:03;36.43;34.93;37.78;;
61270;Laerm;47150;53.032;8.960;2022-08-19T14:05:30;36.47;34.92;37.89;;
61270;Laerm;47150;53.032;8.960;2022-08-19T14:07:57;36.56;35.24;37.96;;
61270;Laerm;47150;53.032;8.960;2022-08-19T14:10:25;36.48;35.07;37.85;;